Etusivu
METAR-TAF:

METAR-TAF

Lentoasemat :

Meierwik

Glücksburg, Saksa

Leveyspiiri: 54-50N, Pituuspiiri: 009-30E, korkeus merenpinnasta: 27 m

Tämänhetkinen sää

Tämä raportti tehtiin 1 tunti ja 7 minuuttia sitten, kello 15.20 UTC
Tuuli 5 kn kaakosta
Lämpötila 4°C
Kosteus 93%
Ilmanpaine 1022 hPa
Näkyvyys 10 km tai enemmän

METAR: ETGG 271520Z AUTO 13005KT 9999 // ////// 04/03 Q1022 ///

Aika: 17:27 (16:27 UTC)


TAF: puuttuu

Säähavainnot ja -ennusteet yli 4000 lentoasemalta (METAR- ja TAF-raportit).

Käytössä olevat sääasemat on merkitty karttaan keltaisilla ja punaisilla pisteillä.

Aseta hiiri pisteen päälle nähdäksesi sääaseman nimen.

Klikkaa sitten nähdäksesi säähavainnot ja -ennusteet.

Kartan vaihtaminen: klikkaa mustalla rastilla varustettuja vihreitä pisteitä, niin voit zoomata sisään; viivalla varustettua vihreää pistettä, niin voit zoomata ulos tai vihreitä nuolia, niin pääset viereisille kartoille.


METAR-TAF: